首页
METAR-TAF:

METAR-TAF

机场 :

佐賀機場

佐賀, 日本

纬度: 33-09N, 经度: 130-18E, 海拔: 2米

当前天气观测

该预报发布于1小时和15分钟前的07:00 UTC
风速3节,风向西
温度 13°C
湿度 62%
气压 1020 hPa
能见度10公里或以上
少量云层高于3500英尺
多云层高于14000英尺
多云

METAR: RJFS 040700Z 26003KT 9999 FEW035 BKN140 BKN/// 13/06 Q1020

时间: 17:15 (08:15 UTC)

预报

该预报发布于3小时和4分钟前的05:11 UTC
预报有效从04日的 06点(UTC)到 05日的 12点(UTC)
风速6节,风向南转西南
能见度10公里或以上
少量云层高于3500英尺
成为
从 04日的 09点(UTC)到 04日的 11点(UTC)
风速6节,风向北转东北
短暂存在
从 04日的 15点(UTC)到 04日的 21点(UTC)
能見度: 4000
小阵雨, 轻雾
短暂存在
从 04日的 21点(UTC)到 05日的 00点(UTC)
能見度: 3000
阵雨, 轻雾
短暂存在
从 05日的 00点(UTC)到 05日的 06点(UTC)
能見度: 4000
小阵雨, 轻雾
短暂存在
从 05日的 06点(UTC)到 05日的 12点(UTC)
能見度: 3000
少量云层高于500英尺
多云层高于800英尺
多云层高于1000英尺
阵雨, 轻雾,

TAF: RJFS 040511Z 0406/0512 20006KT 9999 FEW035 BECMG 0409/0411 03006KT TEMPO 0415/0421 4000 -SHRA BR TEMPO 0421/0500 3000 SHRA BR TEMPO 0500/0506 4000 -SHRA BR TEMPO 0506/0512 3000 SHRA BR FEW005 BKN008 BKN010

超过4000个机场的气象观测和天气预报(METAR&TAF报告)。

可查询的气象台以黄色和红色小点在地图上表示。

将鼠标移到小点上方,可查看气象台名称。

然后点击查看天气观测和预报。

如需切换地图:点击带黑十字的绿色按钮放大地图;点击带横线的绿色按钮缩小地图;或者点击绿色箭头查看邻近地区的地图。


METAR-TAF: